createdAt,value
2022-08-25T00:02:13.731Z,94.35
2022-08-25T00:04:40.519Z,94.25
2022-08-25T00:07:09.081Z,94.38
2022-08-25T00:09:35.757Z,94.40
2022-08-25T00:12:04.897Z,94.34
2022-08-25T00:14:34.217Z,94.47
2022-08-25T00:17:01.575Z,94.23
2022-08-25T00:19:31.923Z,94.10
2022-08-25T00:21:59.377Z,93.95
2022-08-25T00:24:26.609Z,94.03
2022-08-25T00:26:56.544Z,94.16
2022-08-25T00:29:25.669Z,93.97
2022-08-25T00:31:52.997Z,94.09
2022-08-25T00:34:23.092Z,94.05
2022-08-25T00:36:53.135Z,94.08
2022-08-25T00:39:21.917Z,94.14
2022-08-25T00:41:50.776Z,94.21
2022-08-25T00:44:19.118Z,94.07
2022-08-25T00:46:51.646Z,94.05
2022-08-25T00:49:25.447Z,94.13
2022-08-25T00:51:59.457Z,94.18
2022-08-25T00:54:34.527Z,94.49
2022-08-25T00:57:01.547Z,94.40
2022-08-25T00:59:28.787Z,94.60
2022-08-25T01:01:56.268Z,94.54
2022-08-25T01:04:25.233Z,94.45
2022-08-25T01:06:52.596Z,94.51
2022-08-25T01:09:20.062Z,94.42
2022-08-25T01:11:47.816Z,94.36
2022-08-25T01:14:18.028Z,94.46
2022-08-25T01:16:45.216Z,94.57
2022-08-25T01:19:15.153Z,94.77
2022-08-25T01:21:48.657Z,94.94
2022-08-25T01:25:13.959Z,94.92
2022-08-25T01:27:40.546Z,94.80
2022-08-25T01:30:07.605Z,94.98
2022-08-25T01:32:35.076Z,95.03
2022-08-25T01:35:01.699Z,95.04
2022-08-25T01:37:28.347Z,94.89
2022-08-25T01:39:54.927Z,95.28
2022-08-25T01:43:00.038Z,95.06
2022-08-25T01:45:27.351Z,95.12
2022-08-25T01:47:55.636Z,94.84
2022-08-25T01:50:22.275Z,95.01
2022-08-25T01:52:55.120Z,95.27
2022-08-25T01:55:22.986Z,95.19
2022-08-25T01:57:49.656Z,95.22
2022-08-25T02:00:19.209Z,95.15
2022-08-25T02:02:46.286Z,95.42
2022-08-25T02:05:19.328Z,95.42
2022-08-25T02:07:49.316Z,95.56
2022-08-25T02:10:15.957Z,95.53
2022-08-25T02:12:44.032Z,95.49
2022-08-25T02:15:11.076Z,95.43
2022-08-25T02:17:37.815Z,95.51
2022-08-25T02:20:08.742Z,95.37
2022-08-25T02:22:35.415Z,95.39
2022-08-25T02:25:02.237Z,95.49
2022-08-25T02:27:29.218Z,95.52
2022-08-25T02:29:56.056Z,95.38
2022-08-25T02:32:22.856Z,95.56
2022-08-25T02:34:49.494Z,95.76
2022-08-25T02:37:16.677Z,95.88
2022-08-25T02:39:43.176Z,95.77
2022-08-25T02:42:09.818Z,96.00
2022-08-25T02:44:37.479Z,96.05
2022-08-25T02:47:04.421Z,96.24
2022-08-25T02:49:32.017Z,96.33
2022-08-25T02:52:00.395Z,96.43
2022-08-25T02:54:28.658Z,96.36
2022-08-25T02:56:55.297Z,96.24
2022-08-25T02:59:22.436Z,96.40
2022-08-25T03:01:49.276Z,96.18
2022-08-25T03:04:17.336Z,96.33
2022-08-25T03:06:45.448Z,96.47
2022-08-25T03:09:12.580Z,96.78
2022-08-25T03:11:39.515Z,96.66
2022-08-25T03:14:08.917Z,96.70
2022-08-25T03:16:35.866Z,96.70
2022-08-25T03:19:04.355Z,96.55
2022-08-25T03:21:38.056Z,96.52
2022-08-25T03:24:06.836Z,96.88
2022-08-25T03:26:51.789Z,96.94
2022-08-25T03:29:18.555Z,96.92
2022-08-25T03:31:45.457Z,97.20
2022-08-25T03:34:16.501Z,97.31
2022-08-25T03:36:44.716Z,97.67
2022-08-25T03:39:11.876Z,97.52
2022-08-25T03:41:38.896Z,97.62
2022-08-25T03:44:06.875Z,97.68
2022-08-25T03:46:37.158Z,98.05
2022-08-25T03:49:05.406Z,98.18
2022-08-25T03:51:37.832Z,97.88
2022-08-25T03:54:05.928Z,98.04
2022-08-25T03:56:32.855Z,98.01
2022-08-25T03:59:00.415Z,97.85
2022-08-25T04:01:27.315Z,97.90
2022-08-25T04:03:54.615Z,97.95
2022-08-25T04:06:23.184Z,98.03
2022-08-25T04:08:52.387Z,98.26
2022-08-25T04:11:21.069Z,98.12
2022-08-25T04:13:48.855Z,98.38
2022-08-25T04:16:19.894Z,98.57
2022-08-25T04:18:47.663Z,98.46
2022-08-25T04:21:14.798Z,98.42
2022-08-25T04:23:44.092Z,98.71
2022-08-25T04:26:19.651Z,98.80
2022-08-25T04:28:47.306Z,98.99
2022-08-25T04:31:15.494Z,98.87
2022-08-25T04:33:42.856Z,98.81
2022-08-25T04:36:13.386Z,98.90
2022-08-25T04:38:42.420Z,98.89
2022-08-25T04:41:10.978Z,98.99
2022-08-25T04:43:38.901Z,98.93
2022-08-25T04:46:12.139Z,98.82
2022-08-25T04:48:40.061Z,99.12
2022-08-25T04:51:07.961Z,98.95
2022-08-25T04:53:34.517Z,98.99
2022-08-25T04:56:03.822Z,98.99
2022-08-25T04:58:31.232Z,99.02
2022-08-25T05:01:06.386Z,98.73
2022-08-25T05:03:33.579Z,98.72
2022-08-25T05:06:00.956Z,98.81
2022-08-25T05:08:28.431Z,98.81
2022-08-25T05:10:56.712Z,98.84
2022-08-25T05:13:26.639Z,98.97
2022-08-25T05:16:02.590Z,98.81
2022-08-25T05:18:31.663Z,98.85
2022-08-25T05:21:03.311Z,98.73
2022-08-25T05:23:30.991Z,98.65
2022-08-25T05:26:06.529Z,98.36
2022-08-25T05:28:34.392Z,98.28
2022-08-25T05:31:02.560Z,98.25
2022-08-25T05:33:30.588Z,98.10
2022-08-25T05:35:59.032Z,98.29
2022-08-25T05:38:25.670Z,98.37
2022-08-25T05:41:15.339Z,98.27
2022-08-25T05:43:43.584Z,98.26
2022-08-25T05:46:10.199Z,98.38
2022-08-25T05:48:36.739Z,98.17
2022-08-25T05:51:06.268Z,98.01
2022-08-25T05:53:34.372Z,98.16
2022-08-25T05:56:01.739Z,98.29
2022-08-25T05:58:29.466Z,98.31
2022-08-25T06:01:18.419Z,98.11
2022-08-25T06:03:47.349Z,97.77
2022-08-25T06:06:15.625Z,97.74
2022-08-25T06:08:45.722Z,97.65
2022-08-25T06:11:14.113Z,97.70
2022-08-25T06:13:41.056Z,97.67
2022-08-25T06:16:07.956Z,97.33
2022-08-25T06:18:35.237Z,97.56
2022-08-25T06:21:16.957Z,97.27
2022-08-25T06:23:44.292Z,96.78
2022-08-25T06:26:20.593Z,96.46
2022-08-25T06:28:50.357Z,96.35
2022-08-25T06:31:17.222Z,95.96
2022-08-25T06:33:44.705Z,96.02
2022-08-25T06:36:11.513Z,95.85
2022-08-25T06:38:38.254Z,95.74
2022-08-25T06:41:06.834Z,95.75
2022-08-25T06:43:33.871Z,95.80
2022-08-25T06:46:15.792Z,95.86
2022-08-25T06:48:43.239Z,95.84
2022-08-25T06:51:13.926Z,95.72
2022-08-25T06:53:42.232Z,95.46
2022-08-25T06:56:10.013Z,95.45
2022-08-25T06:58:37.260Z,95.27
2022-08-25T07:01:15.667Z,94.82
2022-08-25T07:03:46.908Z,94.79
2022-08-25T07:06:15.093Z,94.68
2022-08-25T07:08:46.747Z,94.78
2022-08-25T07:11:16.397Z,94.53
2022-08-25T07:13:45.129Z,94.31
2022-08-25T07:16:12.254Z,94.02
2022-08-25T07:18:39.158Z,94.00
2022-08-25T07:21:08.774Z,93.47
2022-08-25T07:23:37.049Z,93.20
2022-08-25T07:26:15.686Z,92.97
2022-08-25T07:28:48.919Z,92.03
2022-08-25T07:31:17.432Z,91.81
2022-08-25T07:34:03.677Z,91.62
2022-08-25T07:36:31.565Z,91.31
2022-08-25T07:38:58.973Z,90.93
2022-08-25T07:41:27.213Z,90.46
2022-08-25T07:43:54.039Z,90.65
2022-08-25T07:46:20.862Z,90.06
2022-08-25T07:48:53.235Z,89.93
2022-08-25T07:51:20.283Z,89.65
2022-08-25T07:53:46.931Z,90.00
2022-08-25T07:56:16.035Z,89.29
2022-08-25T07:58:43.439Z,89.37
2022-08-25T08:01:22.848Z,88.87
2022-08-25T08:03:51.540Z,88.17
2022-08-25T08:06:23.700Z,88.05
2022-08-25T08:08:54.576Z,87.59
2022-08-25T08:11:26.875Z,87.29
2022-08-25T08:13:55.662Z,87.37
2022-08-25T08:16:24.678Z,86.95
2022-08-25T08:18:52.075Z,87.13
2022-08-25T08:21:24.918Z,87.17
2022-08-25T08:23:58.126Z,86.86
2022-08-25T08:26:36.266Z,86.60
2022-08-25T08:29:08.696Z,85.99
2022-08-25T08:31:36.755Z,85.31
2022-08-25T08:34:04.003Z,84.82
2022-08-25T08:36:31.449Z,84.23
2022-08-25T08:38:58.158Z,83.75
2022-08-25T08:42:09.576Z,83.21
2022-08-25T08:44:32.531Z,82.43
2022-08-25T08:47:44.420Z,82.45
2022-08-25T08:50:27.677Z,82.36
2022-08-25T08:53:07.301Z,82.29
2022-08-25T08:56:01.837Z,81.54
2022-08-25T08:58:50.006Z,81.02
2022-08-25T09:01:26.295Z,80.62
2022-08-25T09:03:59.277Z,80.45
2022-08-25T09:06:32.166Z,79.66
2022-08-25T09:09:03.166Z,78.80
2022-08-25T09:11:42.722Z,78.33
2022-08-25T09:14:39.704Z,78.03
2022-08-25T09:17:26.506Z,77.30
2022-08-25T09:20:28.164Z,76.79
2022-08-25T09:23:26.849Z,76.85
2022-08-25T09:26:14.634Z,76.59
2022-08-25T09:28:51.262Z,76.44
2022-08-25T09:31:29.904Z,75.96
2022-08-25T09:33:58.436Z,75.97
2022-08-25T09:36:25.508Z,75.31
2022-08-25T09:38:52.558Z,74.37
2022-08-25T09:41:46.246Z,74.86
2022-08-25T09:44:19.425Z,74.82
2022-08-25T09:47:15.646Z,74.61
2022-08-25T09:49:49.153Z,75.20
2022-08-25T09:52:42.217Z,74.75
2022-08-25T09:55:09.272Z,73.66
2022-08-25T09:57:42.773Z,72.63
2022-08-25T10:00:14.465Z,72.20
2022-08-25T10:02:42.480Z,72.04
2022-08-25T10:05:25.874Z,71.74
2022-08-25T10:07:58.498Z,70.97
2022-08-25T10:10:34.648Z,70.05
2022-08-25T10:13:03.196Z,70.28
2022-08-25T10:15:36.510Z,70.25
2022-08-25T10:18:23.337Z,69.48
2022-08-25T10:21:09.899Z,69.02
2022-08-25T10:23:43.062Z,69.24
2022-08-25T10:26:16.722Z,69.28
2022-08-25T10:29:00.133Z,68.81
2022-08-25T10:31:41.600Z,68.86
2022-08-25T10:34:23.872Z,68.28
2022-08-25T10:37:15.473Z,67.31
2022-08-25T10:39:58.646Z,67.63
2022-08-25T10:42:39.166Z,66.27
2022-08-25T10:45:36.421Z,66.46
2022-08-25T10:49:01.032Z,67.20
2022-08-25T10:51:55.193Z,66.62
2022-08-25T10:54:42.524Z,66.34
2022-08-25T10:57:32.194Z,66.64
2022-08-25T11:00:23.259Z,66.30
2022-08-25T11:03:13.731Z,66.77
2022-08-25T11:05:46.280Z,66.56
2022-08-25T11:08:21.432Z,66.33
2022-08-25T11:11:11.518Z,64.86
2022-08-25T11:13:58.950Z,65.29
2022-08-25T11:16:53.585Z,64.93
2022-08-25T11:19:35.957Z,65.02
2022-08-25T11:22:15.582Z,65.13
2022-08-25T11:24:54.920Z,65.55
2022-08-25T11:27:24.326Z,65.52
2022-08-25T11:30:13.964Z,65.65
2022-08-25T11:32:45.240Z,66.40
2022-08-25T11:35:14.028Z,66.16
2022-08-25T11:38:02.829Z,65.88
2022-08-25T11:40:35.333Z,65.88
2022-08-25T11:43:11.171Z,65.92
2022-08-25T11:45:46.420Z,66.24
2022-08-25T11:48:35.961Z,65.18
2022-08-25T11:51:07.506Z,65.26
2022-08-25T11:53:39.047Z,65.61
2022-08-25T11:56:30.135Z,65.30
2022-08-25T11:58:57.703Z,65.05
2022-08-25T12:01:40.109Z,65.36
2022-08-25T12:04:30.936Z,64.99
2022-08-25T12:07:07.224Z,65.07
2022-08-25T12:09:54.529Z,64.80
2022-08-25T12:12:41.614Z,65.44
2022-08-25T12:15:42.392Z,64.86
2022-08-25T12:18:16.600Z,65.27
2022-08-25T12:20:57.861Z,64.69
2022-08-25T12:23:38.206Z,64.40
2022-08-25T12:26:20.608Z,64.56
2022-08-25T12:28:50.542Z,64.15
2022-08-25T12:31:29.360Z,63.95
2022-08-25T12:34:26.792Z,63.57
2022-08-25T12:37:06.472Z,63.51
2022-08-25T12:39:42.113Z,62.33
2022-08-25T12:42:28.709Z,62.13
2022-08-25T12:45:37.858Z,62.72
2022-08-25T12:48:34.380Z,62.56
2022-08-25T12:51:04.142Z,62.81
2022-08-25T12:53:53.766Z,62.48
2022-08-25T12:56:27.996Z,61.59
2022-08-25T12:59:21.508Z,61.97
2022-08-25T13:02:13.231Z,62.60
2022-08-25T13:05:15.221Z,62.64
2022-08-25T13:07:51.581Z,62.23
2022-08-25T13:10:42.493Z,62.55
2022-08-25T13:13:12.332Z,62.68
2022-08-25T13:15:44.915Z,62.81
2022-08-25T13:18:27.108Z,62.90
2022-08-25T13:21:18.363Z,62.34
2022-08-25T13:23:50.900Z,62.02
2022-08-25T13:26:27.210Z,61.05
2022-08-25T13:28:59.322Z,60.44
2022-08-25T13:31:30.255Z,60.64
2022-08-25T13:34:03.514Z,60.80
2022-08-25T13:37:05.222Z,60.79
2022-08-25T13:39:54.852Z,61.31
2022-08-25T13:42:23.997Z,61.39
2022-08-25T13:44:56.166Z,61.41
2022-08-25T13:47:43.688Z,60.62
2022-08-25T13:50:22.726Z,61.05
2022-08-25T13:52:57.955Z,60.34
2022-08-25T13:55:38.239Z,60.05
2022-08-25T13:58:39.255Z,59.40
2022-08-25T14:01:46.855Z,59.80
2022-08-25T14:04:29.370Z,59.55
2022-08-25T14:07:14.220Z,59.55
2022-08-25T14:09:46.868Z,59.48
2022-08-25T14:12:38.243Z,59.85
2022-08-25T14:15:27.512Z,59.95
2022-08-25T14:18:09.453Z,59.94
2022-08-25T14:20:53.803Z,59.98
2022-08-25T14:23:23.906Z,60.14
2022-08-25T14:25:58.832Z,59.90
2022-08-25T14:28:32.505Z,59.38
2022-08-25T14:31:06.956Z,58.99
2022-08-25T14:33:52.914Z,59.16
2022-08-25T14:36:20.929Z,59.39
2022-08-25T14:38:54.760Z,59.26
2022-08-25T14:41:23.749Z,58.95
2022-08-25T14:43:50.620Z,58.75
2022-08-25T14:46:25.352Z,59.14
2022-08-25T14:48:59.464Z,59.49
2022-08-25T14:51:29.845Z,59.42
2022-08-25T14:54:00.716Z,59.68
2022-08-25T14:56:27.679Z,59.91
2022-08-25T14:58:56.571Z,60.24
2022-08-25T15:01:28.707Z,60.52
2022-08-25T15:04:10.087Z,60.82
2022-08-25T15:06:41.545Z,60.70
2022-08-25T15:09:16.455Z,60.42
2022-08-25T15:11:50.608Z,60.31
2022-08-25T15:14:19.195Z,60.11
2022-08-25T15:16:57.402Z,60.30
2022-08-25T15:19:28.007Z,61.13
2022-08-25T15:21:57.795Z,60.95
2022-08-25T15:24:26.218Z,60.93
2022-08-25T15:26:56.308Z,61.06
2022-08-25T15:29:26.261Z,60.73
2022-08-25T15:31:53.305Z,60.70
2022-08-25T15:34:20.354Z,60.93
2022-08-25T15:36:48.005Z,60.71
2022-08-25T15:39:15.772Z,60.59
2022-08-25T15:41:49.357Z,60.65
2022-08-25T15:44:16.564Z,61.04
2022-08-25T15:46:49.688Z,61.16
2022-08-25T15:49:23.241Z,60.67
2022-08-25T15:51:54.580Z,60.67
2022-08-25T15:54:23.354Z,60.81
2022-08-25T15:56:52.034Z,60.97
2022-08-25T15:59:21.637Z,61.13
2022-08-25T16:01:52.908Z,61.31
2022-08-25T16:04:22.195Z,61.85
2022-08-25T16:06:52.036Z,61.70
2022-08-25T16:09:23.117Z,61.62
2022-08-25T16:11:56.722Z,62.13
2022-08-25T16:14:27.828Z,62.00
2022-08-25T16:16:58.242Z,61.80
2022-08-25T16:19:28.670Z,61.68
2022-08-25T16:21:55.886Z,62.17
2022-08-25T16:24:22.742Z,62.54
2022-08-25T16:26:50.412Z,62.50
2022-08-25T16:29:18.882Z,62.48
2022-08-25T16:31:53.302Z,62.57
2022-08-25T16:34:28.407Z,62.88
2022-08-25T16:36:55.902Z,63.14
2022-08-25T16:39:24.015Z,63.10
2022-08-25T16:41:51.953Z,63.27
2022-08-25T16:44:19.820Z,63.64
2022-08-25T16:46:53.730Z,64.13
2022-08-25T16:49:21.161Z,64.50
2022-08-25T16:51:56.578Z,64.53
2022-08-25T16:54:44.562Z,64.84
2022-08-25T16:57:12.720Z,64.71
2022-08-25T16:59:39.478Z,65.28
2022-08-25T17:02:07.103Z,65.12
2022-08-25T17:04:34.372Z,65.35
2022-08-25T17:07:01.709Z,65.86
2022-08-25T17:09:29.658Z,66.06
2022-08-25T17:11:57.060Z,66.50
2022-08-25T17:14:25.655Z,66.51
2022-08-25T17:16:55.774Z,66.77
2022-08-25T17:19:25.910Z,67.10
2022-08-25T17:21:54.530Z,66.85
2022-08-25T17:24:29.649Z,67.25
2022-08-25T17:26:57.098Z,67.40
2022-08-25T17:29:24.419Z,67.64
2022-08-25T17:31:52.910Z,67.88
2022-08-25T17:34:23.058Z,68.11
2022-08-25T17:36:50.668Z,68.18
2022-08-25T17:39:22.047Z,68.51
2022-08-25T17:41:50.842Z,68.73
2022-08-25T17:44:19.411Z,69.04
2022-08-25T17:46:47.898Z,69.71
2022-08-25T17:49:18.512Z,68.71
2022-08-25T17:51:45.556Z,67.06
2022-08-25T17:54:12.910Z,66.76
2022-08-25T17:56:39.756Z,66.99
2022-08-25T17:59:06.594Z,67.33
2022-08-25T18:01:40.273Z,67.60
2022-08-25T18:04:16.901Z,68.19
2022-08-25T18:06:45.036Z,68.61
2022-08-25T18:09:11.644Z,68.96
2022-08-25T18:11:38.506Z,69.61
2022-08-25T18:14:06.680Z,69.79
2022-08-25T18:16:38.131Z,69.93
2022-08-25T18:19:06.440Z,70.42
2022-08-25T18:21:36.753Z,71.68
2022-08-25T18:24:04.463Z,72.91
2022-08-25T18:26:32.691Z,73.85
2022-08-25T18:29:00.132Z,74.89
2022-08-25T18:31:28.318Z,76.10
2022-08-25T18:33:56.503Z,76.90
2022-08-25T18:36:23.532Z,77.49
2022-08-25T18:39:09.205Z,77.62
2022-08-25T18:41:40.071Z,78.11
2022-08-25T18:44:08.556Z,79.53
2022-08-25T18:46:39.318Z,80.47
2022-08-25T18:49:06.513Z,80.99
2022-08-25T18:51:33.672Z,81.40
2022-08-25T18:54:01.562Z,81.61
2022-08-25T18:56:29.512Z,82.19
2022-08-25T18:58:57.769Z,82.37
2022-08-25T19:01:25.617Z,82.44
2022-08-25T19:03:53.515Z,82.89
2022-08-25T19:06:21.192Z,82.96
2022-08-25T19:08:48.731Z,83.71
2022-08-25T19:11:16.813Z,83.94
2022-08-25T19:13:44.674Z,83.99
2022-08-25T19:16:20.192Z,84.30
2022-08-25T19:18:49.055Z,84.55
2022-08-25T19:21:22.711Z,84.68
2022-08-25T19:23:51.272Z,84.61
2022-08-25T19:26:20.912Z,84.62
2022-08-25T19:28:49.846Z,84.69
2022-08-25T19:31:22.340Z,85.01
2022-08-25T19:33:51.883Z,85.17
2022-08-25T19:36:23.080Z,84.77
2022-08-25T19:38:51.843Z,85.03
2022-08-25T19:41:21.248Z,85.15
2022-08-25T19:43:56.657Z,85.30
2022-08-25T19:46:32.883Z,85.07
2022-08-25T19:49:08.504Z,85.58
2022-08-25T19:51:44.066Z,85.47
2022-08-25T19:54:16.496Z,85.59
2022-08-25T19:56:54.490Z,85.53
2022-08-25T19:59:25.391Z,85.56
2022-08-25T20:01:53.725Z,85.56
2022-08-25T20:04:20.940Z,85.93
2022-08-25T20:06:51.786Z,86.31
2022-08-25T20:09:35.708Z,86.78
2022-08-25T20:12:06.900Z,87.07
2022-08-25T20:14:34.910Z,86.97
2022-08-25T20:17:02.601Z,87.26
2022-08-25T20:19:31.070Z,87.22
2022-08-25T20:21:59.152Z,87.11
2022-08-25T20:24:45.353Z,86.82
2022-08-25T20:27:12.806Z,86.85
2022-08-25T20:29:40.469Z,86.82
2022-08-25T20:32:12.336Z,86.97
2022-08-25T20:34:41.359Z,86.99
2022-08-25T20:37:09.413Z,87.19
2022-08-25T20:39:37.286Z,87.24
2022-08-25T20:42:05.436Z,87.11
2022-08-25T20:44:39.939Z,87.21
2022-08-25T20:47:10.544Z,87.22
2022-08-25T20:49:39.520Z,87.95
2022-08-25T20:52:07.792Z,88.15
2022-08-25T20:54:35.011Z,87.99
2022-08-25T20:57:02.568Z,88.33
2022-08-25T20:59:29.533Z,88.53
2022-08-25T21:01:56.920Z,88.43
2022-08-25T21:04:26.767Z,88.57
2022-08-25T21:06:53.515Z,88.67
2022-08-25T21:09:23.441Z,88.85
2022-08-25T21:11:52.921Z,89.07
2022-08-25T21:14:20.694Z,89.20
2022-08-25T21:16:48.644Z,89.33
2022-08-25T21:19:17.900Z,89.37
2022-08-25T21:21:59.886Z,89.53
2022-08-25T21:24:28.051Z,89.83
2022-08-25T21:26:57.536Z,89.71
2022-08-25T21:29:25.645Z,89.88
2022-08-25T21:31:58.257Z,90.12
2022-08-25T21:34:25.752Z,90.46
2022-08-25T21:36:57.968Z,90.81
2022-08-25T21:39:27.594Z,91.00
2022-08-25T21:41:56.037Z,90.67
2022-08-25T21:44:23.372Z,90.92
2022-08-25T21:46:54.268Z,91.20
2022-08-25T21:49:23.912Z,91.40
2022-08-25T21:52:00.401Z,91.55
2022-08-25T21:54:28.699Z,91.61
2022-08-25T21:57:04.684Z,91.60
2022-08-25T21:59:33.798Z,91.66
2022-08-25T22:02:07.563Z,91.69
2022-08-25T22:04:34.857Z,91.97
2022-08-25T22:07:02.532Z,92.24
2022-08-25T22:09:30.391Z,92.33
2022-08-25T22:11:58.727Z,92.38
2022-08-25T22:14:26.735Z,92.54
2022-08-25T22:16:54.476Z,92.62
2022-08-25T22:19:22.828Z,92.75
2022-08-25T22:21:50.844Z,92.58
2022-08-25T22:24:19.031Z,92.67
2022-08-25T22:26:47.405Z,92.71
2022-08-25T22:29:20.736Z,92.56
2022-08-25T22:31:59.313Z,92.76
2022-08-25T22:34:32.622Z,93.13
2022-08-25T22:37:03.873Z,93.20
2022-08-25T22:39:31.721Z,93.25
2022-08-25T22:42:00.320Z,93.35
2022-08-25T22:44:26.853Z,93.25
2022-08-25T22:46:53.801Z,93.21
2022-08-25T22:49:21.653Z,93.49
2022-08-25T22:51:49.734Z,93.50
2022-08-25T22:54:17.991Z,93.29
2022-08-25T22:56:45.696Z,93.47
2022-08-25T22:59:13.668Z,93.55
2022-08-25T23:01:41.911Z,93.71
2022-08-25T23:04:09.252Z,94.05
2022-08-25T23:06:37.957Z,94.44
2022-08-25T23:09:07.651Z,94.48
2022-08-25T23:11:35.572Z,94.60
2022-08-25T23:14:09.948Z,94.80
2022-08-25T23:16:41.963Z,94.65
2022-08-25T23:19:10.612Z,94.03
2022-08-25T23:21:56.844Z,93.47
2022-08-25T23:24:29.382Z,93.57
2022-08-25T23:27:01.437Z,94.34
2022-08-25T23:29:29.631Z,94.92
2022-08-25T23:31:57.433Z,95.22
2022-08-25T23:34:24.916Z,95.53
2022-08-25T23:36:52.175Z,95.42
2022-08-25T23:39:19.252Z,95.18
2022-08-25T23:41:50.014Z,95.22
2022-08-25T23:44:18.584Z,95.37
2022-08-25T23:46:47.475Z,95.37
2022-08-25T23:49:18.491Z,95.53
2022-08-25T23:51:50.223Z,95.25
2022-08-25T23:54:20.352Z,95.26
2022-08-25T23:56:51.766Z,95.14
2022-08-25T23:59:24.039Z,94.82
